createdAt,value
2022-10-27T00:02:09.524Z,91.20
2022-10-27T00:04:20.224Z,90.90
2022-10-27T00:06:30.533Z,93.40
2022-10-27T00:08:41.088Z,95.90
2022-10-27T00:11:00.695Z,94.00
2022-10-27T00:13:12.607Z,73.20
2022-10-27T00:15:22.739Z,54.50
2022-10-27T00:17:36.693Z,63.60
2022-10-27T00:19:46.898Z,63.30
2022-10-27T00:21:57.117Z,60.80
2022-10-27T00:24:07.466Z,65.30
2022-10-27T00:26:20.654Z,63.20
2022-10-27T00:28:33.405Z,73.60
2022-10-27T00:30:43.273Z,76.50
2022-10-27T00:32:53.880Z,69.60
2022-10-27T00:35:04.253Z,78.30
2022-10-27T00:37:15.038Z,78.00
2022-10-27T00:39:25.695Z,66.10
2022-10-27T00:41:37.892Z,65.80
2022-10-27T00:43:47.819Z,55.40
2022-10-27T00:45:59.873Z,50.30
2022-10-27T00:48:10.566Z,43.40
2022-10-27T00:50:22.913Z,34.80
2022-10-27T00:52:37.531Z,33.30
2022-10-27T00:54:47.667Z,24.60
2022-10-27T00:56:59.890Z,25.10
2022-10-27T00:59:10.923Z,16.40
2022-10-27T01:01:21.279Z,13.50
2022-10-27T01:03:32.417Z,17.30
2022-10-27T01:05:45.337Z,27.70
2022-10-27T01:07:57.510Z,30.30
2022-10-27T01:10:08.510Z,34.10
2022-10-27T01:12:18.841Z,38.50
2022-10-27T01:14:29.777Z,33.90
2022-10-27T01:16:51.018Z,28.30
2022-10-27T01:19:10.661Z,29.00
2022-10-27T01:21:48.522Z,25.80
2022-10-27T01:24:21.505Z,7.90
2022-10-27T01:26:52.513Z,21.50
2022-10-27T01:29:41.052Z,11.60
2022-10-27T01:31:59.105Z,9.20
2022-10-27T01:34:14.556Z,15.20
2022-10-27T01:36:33.421Z,11.50
2022-10-27T01:38:48.422Z,9.70
2022-10-27T01:41:03.899Z,10.70
2022-10-27T01:43:17.618Z,9.80
2022-10-27T01:45:30.946Z,8.80
2022-10-27T01:47:41.370Z,12.50
2022-10-27T01:49:54.313Z,12.90
2022-10-27T01:52:10.961Z,7.90
2022-10-27T01:54:24.086Z,8.10
2022-10-27T01:56:52.701Z,9.20
2022-10-27T01:59:22.146Z,8.30
2022-10-27T02:01:44.712Z,13.20
2022-10-27T02:06:19.918Z,11.60
2022-10-27T02:08:37.442Z,5.50
2022-10-27T02:10:53.647Z,6.50
2022-10-27T02:13:05.909Z,9.30
2022-10-27T02:15:25.328Z,10.30
2022-10-27T02:17:40.437Z,9.50
2022-10-27T02:19:54.389Z,8.10
2022-10-27T02:22:07.400Z,8.60
2022-10-27T02:24:17.711Z,6.00
2022-10-27T02:26:33.827Z,9.80
2022-10-27T02:28:47.205Z,12.10
2022-10-27T02:31:00.463Z,11.40
2022-10-27T02:33:11.920Z,7.50
2022-10-27T02:35:22.505Z,6.20
2022-10-27T02:37:36.604Z,12.30
2022-10-27T02:39:47.485Z,10.70
2022-10-27T02:41:57.723Z,8.50
2022-10-27T02:44:08.091Z,12.30
2022-10-27T02:46:19.155Z,8.20
2022-10-27T02:48:29.070Z,10.20
2022-10-27T02:52:49.242Z,6.50
2022-10-27T02:54:59.439Z,7.10
2022-10-27T02:57:09.630Z,7.00
2022-10-27T02:59:19.959Z,6.80
2022-10-27T03:01:30.487Z,6.70
2022-10-27T03:03:40.627Z,10.80
2022-10-27T03:05:50.869Z,11.00
2022-10-27T03:08:01.210Z,7.90
2022-10-27T03:12:23.725Z,13.70
2022-10-27T03:14:33.578Z,12.50
2022-10-27T03:16:43.827Z,10.40
2022-10-27T03:18:54.291Z,7.20
2022-10-27T03:21:04.300Z,9.50
2022-10-27T03:23:14.485Z,12.60
2022-10-27T03:25:24.687Z,8.40
2022-10-27T03:27:35.874Z,6.70
2022-10-27T03:31:56.798Z,13.60
2022-10-27T03:34:06.894Z,10.30
2022-10-27T03:36:17.101Z,10.20
2022-10-27T03:38:27.443Z,15.30
2022-10-27T03:40:37.853Z,16.30
2022-10-27T03:42:48.206Z,10.70
2022-10-27T03:44:58.851Z,16.20
2022-10-27T03:47:08.923Z,17.70
2022-10-27T03:49:19.423Z,16.40
2022-10-27T03:51:29.674Z,15.10
2022-10-27T03:53:40.833Z,10.60
2022-10-27T03:55:51.775Z,9.20
2022-10-27T03:58:02.097Z,5.60
2022-10-27T04:00:17.500Z,8.60
2022-10-27T04:02:27.716Z,9.60
2022-10-27T04:04:37.739Z,12.90
2022-10-27T04:06:47.861Z,13.00
2022-10-27T04:08:57.951Z,16.70
2022-10-27T04:11:08.705Z,11.50
2022-10-27T04:13:18.799Z,10.50
2022-10-27T04:15:29.953Z,6.10
2022-10-27T04:17:40.082Z,8.20
2022-10-27T04:19:50.153Z,9.20
2022-10-27T04:22:00.885Z,6.50
2022-10-27T04:24:11.802Z,16.20
2022-10-27T04:26:21.754Z,9.70
2022-10-27T04:28:31.962Z,10.60
2022-10-27T04:30:42.251Z,9.00
2022-10-27T04:32:56.167Z,15.90
2022-10-27T04:35:06.350Z,9.70
2022-10-27T04:37:16.478Z,9.60
2022-10-27T04:39:26.717Z,8.50
2022-10-27T04:41:37.111Z,9.70
2022-10-27T04:46:05.639Z,5.50
2022-10-27T04:48:15.823Z,9.30
2022-10-27T04:50:26.111Z,11.00
2022-10-27T04:52:38.298Z,8.00
2022-10-27T04:54:50.860Z,11.40
2022-10-27T04:57:00.846Z,8.20
2022-10-27T04:59:11.501Z,11.10
2022-10-27T05:01:21.779Z,13.10
2022-10-27T05:03:31.969Z,14.50
2022-10-27T05:05:42.077Z,10.60
2022-10-27T05:07:57.854Z,10.10
2022-10-27T05:10:08.862Z,14.40
2022-10-27T05:12:18.842Z,12.40
2022-10-27T05:14:29.086Z,17.10
2022-10-27T05:16:39.310Z,16.40
2022-10-27T05:18:49.423Z,15.30
2022-10-27T05:20:59.703Z,29.30
2022-10-27T05:23:10.290Z,28.80
2022-10-27T05:25:21.008Z,31.60
2022-10-27T05:27:31.097Z,20.70
2022-10-27T05:29:41.041Z,18.90
2022-10-27T05:31:51.084Z,17.50
2022-10-27T05:34:01.212Z,22.40
2022-10-27T05:36:12.282Z,14.00
2022-10-27T05:38:22.321Z,18.00
2022-10-27T05:40:34.856Z,22.00
2022-10-27T05:44:52.905Z,16.60
2022-10-27T05:47:02.706Z,12.70
2022-10-27T05:49:12.956Z,11.20
2022-10-27T05:51:23.201Z,21.60
2022-10-27T05:53:33.778Z,22.50
2022-10-27T05:55:43.841Z,30.60
2022-10-27T05:58:04.266Z,41.10
2022-10-27T06:00:17.627Z,24.70
2022-10-27T06:02:30.329Z,16.60
2022-10-27T06:04:40.550Z,29.40
2022-10-27T06:06:50.677Z,35.70
2022-10-27T06:09:00.748Z,34.50
2022-10-27T06:11:11.167Z,24.70
2022-10-27T06:13:21.309Z,21.50
2022-10-27T06:15:31.977Z,24.80
2022-10-27T06:17:42.222Z,26.30
2022-10-27T06:19:52.235Z,15.90
2022-10-27T06:22:02.478Z,43.90
2022-10-27T06:24:14.483Z,26.60
2022-10-27T06:26:24.670Z,29.30
2022-10-27T06:28:34.620Z,31.70
2022-10-27T06:30:45.599Z,27.00
2022-10-27T06:32:57.102Z,47.20
2022-10-27T06:35:09.003Z,36.30
2022-10-27T06:37:19.544Z,40.80
2022-10-27T06:39:30.560Z,63.30
2022-10-27T06:41:41.162Z,52.60
2022-10-27T06:43:51.517Z,55.20
2022-10-27T06:46:02.084Z,41.30
2022-10-27T06:48:14.331Z,53.50
2022-10-27T06:50:26.979Z,35.80
2022-10-27T06:52:40.029Z,52.40
2022-10-27T06:54:54.317Z,59.30
2022-10-27T06:57:06.873Z,38.60
2022-10-27T06:59:18.097Z,48.40
2022-10-27T07:01:28.321Z,39.80
2022-10-27T07:03:38.515Z,28.80
2022-10-27T07:05:49.062Z,38.10
2022-10-27T07:07:59.418Z,30.20
2022-10-27T07:10:11.139Z,27.30
2022-10-27T07:12:21.105Z,16.70
2022-10-27T07:14:31.137Z,32.30
2022-10-27T07:16:41.398Z,33.50
2022-10-27T07:18:52.253Z,41.10
2022-10-27T07:21:02.169Z,40.60
2022-10-27T07:23:13.675Z,34.20
2022-10-27T07:25:24.018Z,24.20
2022-10-27T07:27:34.080Z,27.60
2022-10-27T07:29:45.008Z,29.50
2022-10-27T07:31:55.650Z,34.30
2022-10-27T07:34:07.031Z,30.20
2022-10-27T07:36:17.195Z,26.50
2022-10-27T07:38:27.190Z,32.20
2022-10-27T07:40:37.506Z,26.80
2022-10-27T07:42:49.423Z,29.30
2022-10-27T07:44:59.933Z,18.90
2022-10-27T07:47:09.877Z,26.80
2022-10-27T07:49:21.025Z,18.00
2022-10-27T07:51:31.980Z,26.60
2022-10-27T07:53:42.437Z,13.80
2022-10-27T07:55:54.122Z,20.20
2022-10-27T07:58:06.544Z,11.20
2022-10-27T08:02:26.594Z,18.60
2022-10-27T08:04:36.877Z,36.00
2022-10-27T08:06:46.932Z,40.90
2022-10-27T08:08:57.402Z,33.40
2022-10-27T08:11:07.752Z,27.20
2022-10-27T08:13:19.135Z,30.10
2022-10-27T08:15:30.162Z,18.80
2022-10-27T08:17:40.097Z,13.30
2022-10-27T08:19:50.398Z,22.50
2022-10-27T08:22:01.163Z,17.80
2022-10-27T08:24:12.188Z,21.40
2022-10-27T08:26:22.229Z,29.80
2022-10-27T08:28:32.337Z,23.30
2022-10-27T08:30:50.683Z,28.40
2022-10-27T08:33:04.983Z,17.30
2022-10-27T08:35:15.608Z,27.90
2022-10-27T08:37:25.955Z,18.00
2022-10-27T08:39:36.100Z,15.50
2022-10-27T08:41:53.556Z,15.60
2022-10-27T08:44:26.814Z,18.30
2022-10-27T08:46:44.387Z,15.20
2022-10-27T08:49:00.511Z,16.10
2022-10-27T08:51:16.377Z,18.40
2022-10-27T08:53:32.871Z,12.70
2022-10-27T08:55:55.148Z,30.40
2022-10-27T08:58:09.582Z,30.20
2022-10-27T09:00:20.324Z,24.30
2022-10-27T09:03:06.333Z,21.60
2022-10-27T09:05:43.983Z,28.60
2022-10-27T09:08:01.438Z,17.00
2022-10-27T09:10:22.160Z,18.00
2022-10-27T09:13:01.499Z,16.60
2022-10-27T09:15:41.564Z,16.00
2022-10-27T09:17:57.910Z,12.40
2022-10-27T09:20:16.502Z,12.60
2022-10-27T09:22:28.209Z,14.20
2022-10-27T09:24:41.945Z,14.50
2022-10-27T09:26:52.576Z,19.90
2022-10-27T09:29:06.344Z,27.80
2022-10-27T09:31:20.357Z,32.00
2022-10-27T09:33:34.503Z,35.00
2022-10-27T09:35:44.545Z,31.20
2022-10-27T09:37:57.053Z,39.60
2022-10-27T09:40:13.179Z,33.00
2022-10-27T09:42:23.729Z,24.30
2022-10-27T09:44:35.029Z,40.00
2022-10-27T09:46:46.942Z,43.20
2022-10-27T09:49:05.600Z,22.60
2022-10-27T09:51:22.672Z,32.90
2022-10-27T09:53:44.313Z,27.50
2022-10-27T09:55:55.954Z,18.70
2022-10-27T09:58:06.566Z,15.90
2022-10-27T10:00:31.602Z,23.70
2022-10-27T10:02:47.252Z,21.00
2022-10-27T10:04:59.498Z,37.60
2022-10-27T10:07:30.204Z,18.10
2022-10-27T10:09:41.411Z,21.40
2022-10-27T10:11:51.855Z,34.70
2022-10-27T10:14:04.483Z,24.40
2022-10-27T10:16:18.240Z,15.20
2022-10-27T10:18:31.606Z,30.70
2022-10-27T10:20:44.865Z,35.40
2022-10-27T10:22:56.346Z,26.90
2022-10-27T10:25:17.685Z,53.30
2022-10-27T10:27:33.205Z,31.90
2022-10-27T10:29:51.569Z,31.40
2022-10-27T10:32:20.742Z,38.90
2022-10-27T10:34:36.182Z,26.30
2022-10-27T10:36:50.728Z,37.70
2022-10-27T10:39:02.497Z,39.10
2022-10-27T10:41:17.299Z,36.50
2022-10-27T10:43:27.333Z,43.00
2022-10-27T10:45:41.084Z,28.30
2022-10-27T10:47:56.446Z,28.90
2022-10-27T10:50:13.603Z,43.10
2022-10-27T10:52:27.091Z,39.00
2022-10-27T10:54:40.334Z,30.60
2022-10-27T10:56:57.387Z,38.10
2022-10-27T10:59:15.740Z,25.30
2022-10-27T11:01:26.632Z,29.90
2022-10-27T11:03:44.026Z,27.50
2022-10-27T11:06:01.151Z,42.60
2022-10-27T11:08:21.664Z,27.60
2022-10-27T11:10:34.813Z,20.40
2022-10-27T11:12:48.406Z,23.50
2022-10-27T11:15:00.734Z,27.50
2022-10-27T11:17:11.387Z,19.70
2022-10-27T11:19:25.292Z,25.30
2022-10-27T11:21:40.844Z,33.20
2022-10-27T11:23:52.855Z,24.40
2022-10-27T11:26:05.139Z,15.70
2022-10-27T11:28:24.987Z,28.50
2022-10-27T11:30:38.793Z,21.10
2022-10-27T11:32:54.620Z,15.50
2022-10-27T11:35:13.801Z,16.50
2022-10-27T11:37:30.973Z,15.70
2022-10-27T11:39:50.788Z,23.60
2022-10-27T11:42:11.775Z,25.50
2022-10-27T11:44:34.732Z,17.60
2022-10-27T11:49:10.644Z,15.80
2022-10-27T11:51:26.596Z,14.30
2022-10-27T11:53:40.230Z,9.70
2022-10-27T11:56:10.258Z,12.80
2022-10-27T11:58:28.079Z,14.00
2022-10-27T12:00:47.016Z,14.90
2022-10-27T12:03:15.996Z,8.90
2022-10-27T12:05:31.750Z,13.10
2022-10-27T12:08:06.122Z,10.50
2022-10-27T12:10:27.611Z,7.60
2022-10-27T12:12:41.102Z,4.90
2022-10-27T12:14:57.685Z,8.80
2022-10-27T12:17:13.696Z,6.70
2022-10-27T12:19:30.253Z,10.30
2022-10-27T12:21:45.486Z,13.70
2022-10-27T12:24:03.108Z,11.70
2022-10-27T12:26:19.759Z,6.60
2022-10-27T12:28:31.232Z,8.60
2022-10-27T12:30:44.641Z,7.50
2022-10-27T12:33:00.777Z,5.40
2022-10-27T12:35:20.398Z,6.60
2022-10-27T12:37:41.104Z,3.70
2022-10-27T12:39:57.832Z,5.80
2022-10-27T12:42:17.997Z,4.60
2022-10-27T12:44:39.860Z,11.00
2022-10-27T12:47:05.450Z,5.30
2022-10-27T12:49:27.357Z,7.00
2022-10-27T12:51:48.408Z,5.10
2022-10-27T12:54:04.350Z,4.90
2022-10-27T12:56:27.071Z,3.40
2022-10-27T12:58:47.422Z,5.60
2022-10-27T13:01:08.271Z,5.30
2022-10-27T13:03:35.480Z,6.90
2022-10-27T13:06:09.310Z,3.00
2022-10-27T13:09:08.975Z,17.70
2022-10-27T13:11:37.515Z,10.30
2022-10-27T13:14:04.340Z,8.60
2022-10-27T13:16:24.977Z,8.00
2022-10-27T13:18:58.898Z,5.80
2022-10-27T13:21:17.130Z,3.20
2022-10-27T13:23:33.288Z,5.40
2022-10-27T13:25:48.311Z,5.70
2022-10-27T13:28:06.843Z,6.50
2022-10-27T13:30:23.503Z,6.90
2022-10-27T13:32:56.416Z,6.10
2022-10-27T13:35:33.207Z,7.90
2022-10-27T13:37:45.345Z,9.60
2022-10-27T13:39:55.559Z,7.60
2022-10-27T13:42:30.229Z,6.00
2022-10-27T13:44:41.603Z,7.90
2022-10-27T13:47:17.413Z,8.90
2022-10-27T13:49:57.881Z,8.70
2022-10-27T13:52:24.827Z,10.30
2022-10-27T13:54:55.671Z,7.60
2022-10-27T13:57:26.528Z,6.80
2022-10-27T13:59:39.316Z,8.10
2022-10-27T14:01:53.417Z,7.60
2022-10-27T14:04:25.320Z,11.30
2022-10-27T14:06:38.931Z,6.30
2022-10-27T14:08:54.851Z,9.60
2022-10-27T14:11:12.181Z,5.20
2022-10-27T14:13:26.445Z,3.20
2022-10-27T14:15:38.394Z,5.10
2022-10-27T14:17:49.816Z,4.50
2022-10-27T14:20:03.886Z,5.50
2022-10-27T14:22:30.957Z,6.60
2022-10-27T14:24:51.292Z,6.70
2022-10-27T14:27:06.062Z,7.70
2022-10-27T14:29:28.051Z,11.70
2022-10-27T14:31:38.589Z,6.50
2022-10-27T14:33:48.752Z,7.30
2022-10-27T14:36:17.933Z,12.10
2022-10-27T14:38:28.296Z,10.10
2022-10-27T14:40:43.481Z,8.20
2022-10-27T14:42:54.231Z,10.40
2022-10-27T14:45:07.450Z,8.30
2022-10-27T14:47:19.524Z,7.30
2022-10-27T14:49:35.091Z,9.00
2022-10-27T14:51:48.209Z,6.50
2022-10-27T14:53:59.594Z,8.00
2022-10-27T14:56:20.807Z,10.50
2022-10-27T14:58:31.012Z,6.80
2022-10-27T15:00:41.511Z,5.70
2022-10-27T15:02:52.379Z,5.10
2022-10-27T15:07:39.931Z,4.50
2022-10-27T15:09:55.019Z,8.10
2022-10-27T15:12:10.673Z,6.70
2022-10-27T15:14:24.160Z,8.10
2022-10-27T15:16:38.927Z,4.90
2022-10-27T15:18:52.851Z,7.30
2022-10-27T15:21:06.978Z,10.40
2022-10-27T15:23:21.318Z,5.60
2022-10-27T15:25:36.356Z,10.50
2022-10-27T15:27:50.340Z,4.20
2022-10-27T15:30:04.513Z,5.60
2022-10-27T15:32:30.678Z,5.20
2022-10-27T15:34:44.411Z,7.20
2022-10-27T15:37:16.340Z,7.70
2022-10-27T15:39:29.560Z,7.70
2022-10-27T15:41:50.184Z,5.60
2022-10-27T15:44:21.041Z,10.00
2022-10-27T15:46:39.619Z,5.40
2022-10-27T15:48:58.818Z,6.40
2022-10-27T15:51:15.805Z,4.00
2022-10-27T15:53:31.853Z,10.20
2022-10-27T15:55:47.067Z,7.50
2022-10-27T15:58:00.263Z,5.80
2022-10-27T16:00:26.404Z,4.40
2022-10-27T16:02:47.167Z,6.00
2022-10-27T16:05:01.521Z,6.70
2022-10-27T16:07:36.878Z,4.90
2022-10-27T16:09:51.972Z,4.40
2022-10-27T16:12:05.297Z,6.60
2022-10-27T16:14:21.666Z,6.70
2022-10-27T16:16:37.469Z,3.40
2022-10-27T16:18:50.975Z,5.70
2022-10-27T16:21:04.400Z,12.60
2022-10-27T16:23:19.437Z,4.80
2022-10-27T16:25:35.537Z,6.50
2022-10-27T16:27:49.224Z,5.70
2022-10-27T16:30:04.666Z,8.10
2022-10-27T16:32:19.159Z,5.60
2022-10-27T16:34:34.391Z,10.30
2022-10-27T16:36:47.807Z,18.00
2022-10-27T16:39:01.934Z,16.60
2022-10-27T16:41:19.557Z,8.30
2022-10-27T16:43:37.955Z,14.10
2022-10-27T16:45:51.350Z,8.40
2022-10-27T16:48:04.687Z,10.60
2022-10-27T16:50:18.780Z,6.90
2022-10-27T16:52:32.035Z,11.40
2022-10-27T16:54:46.944Z,9.20
2022-10-27T16:57:00.327Z,11.20
2022-10-27T16:59:14.788Z,8.30
2022-10-27T17:01:28.660Z,5.20
2022-10-27T17:03:42.729Z,6.10
2022-10-27T17:05:56.970Z,7.50
2022-10-27T17:08:11.105Z,8.10
2022-10-27T17:10:24.727Z,8.90
2022-10-27T17:12:38.149Z,7.30
2022-10-27T17:14:55.142Z,5.80
2022-10-27T17:17:08.416Z,17.00
2022-10-27T17:19:21.691Z,19.40
2022-10-27T17:21:36.454Z,19.60
2022-10-27T17:23:49.864Z,19.20
2022-10-27T17:26:09.306Z,18.80
2022-10-27T17:30:36.562Z,18.00
2022-10-27T17:32:50.097Z,20.30
2022-10-27T17:35:04.346Z,37.10
2022-10-27T17:37:19.529Z,31.10
2022-10-27T17:39:33.100Z,23.50
2022-10-27T17:41:46.457Z,18.90
2022-10-27T17:44:00.698Z,21.50
2022-10-27T17:46:15.924Z,20.90
2022-10-27T17:48:30.089Z,27.30
2022-10-27T17:50:43.281Z,19.30
2022-10-27T17:52:56.472Z,22.40
2022-10-27T17:55:11.546Z,24.80
2022-10-27T17:57:25.728Z,22.10
2022-10-27T17:59:38.945Z,18.00
2022-10-27T18:01:52.286Z,28.60
2022-10-27T18:04:09.998Z,22.60
2022-10-27T18:06:24.630Z,27.20
2022-10-27T18:08:37.926Z,37.60
2022-10-27T18:10:52.203Z,49.30
2022-10-27T18:13:06.755Z,30.30
2022-10-27T18:15:36.315Z,28.30
2022-10-27T18:17:52.245Z,27.30
2022-10-27T18:20:05.374Z,34.50
2022-10-27T18:22:18.563Z,33.60
2022-10-27T18:24:31.819Z,27.70
2022-10-27T18:26:46.972Z,10.50
2022-10-27T18:29:00.424Z,23.70
2022-10-27T18:31:17.091Z,34.80
2022-10-27T18:33:30.573Z,37.30
2022-10-27T18:35:44.864Z,32.00
2022-10-27T18:37:58.498Z,31.90
2022-10-27T18:40:14.731Z,26.00
2022-10-27T18:42:27.911Z,28.40
2022-10-27T18:44:41.114Z,25.80
2022-10-27T18:46:54.913Z,21.20
2022-10-27T18:49:15.620Z,26.80
2022-10-27T18:51:35.493Z,24.30
2022-10-27T18:53:49.456Z,26.20
2022-10-27T18:56:03.374Z,22.10
2022-10-27T18:58:17.059Z,22.70
2022-10-27T19:00:30.515Z,17.70
2022-10-27T19:02:43.966Z,17.50
2022-10-27T19:04:57.799Z,35.90
2022-10-27T19:07:11.644Z,32.00
2022-10-27T19:09:25.142Z,26.60
2022-10-27T19:11:40.819Z,19.60
2022-10-27T19:13:55.094Z,24.00
2022-10-27T19:16:09.370Z,25.90
2022-10-27T19:18:22.610Z,20.40
2022-10-27T19:20:36.115Z,20.10
2022-10-27T19:22:49.368Z,27.40
2022-10-27T19:25:03.607Z,31.70
2022-10-27T19:27:16.919Z,31.80
2022-10-27T19:29:30.052Z,35.50
2022-10-27T19:31:43.588Z,26.10
2022-10-27T19:33:57.364Z,34.60
2022-10-27T19:36:15.494Z,25.50
2022-10-27T19:38:28.808Z,27.40
2022-10-27T19:40:44.190Z,32.00
2022-10-27T19:42:57.449Z,35.80
2022-10-27T19:45:12.140Z,36.90
2022-10-27T19:49:44.465Z,31.00
2022-10-27T19:51:58.900Z,19.50
2022-10-27T19:54:15.830Z,23.30
2022-10-27T19:56:32.941Z,23.60
2022-10-27T19:58:47.554Z,17.70
2022-10-27T20:01:00.802Z,18.00
2022-10-27T20:03:14.028Z,21.20
2022-10-27T20:05:28.130Z,22.20
2022-10-27T20:07:41.603Z,21.30
2022-10-27T20:09:55.728Z,18.30
2022-10-27T20:12:09.059Z,32.80
2022-10-27T20:14:24.517Z,21.60
2022-10-27T20:16:41.894Z,19.10
2022-10-27T20:18:55.488Z,26.00
2022-10-27T20:21:10.677Z,22.00
2022-10-27T20:23:26.046Z,27.90
2022-10-27T20:25:40.380Z,26.90
2022-10-27T20:27:54.519Z,29.20
2022-10-27T20:30:08.336Z,21.10
2022-10-27T20:32:21.713Z,22.60
2022-10-27T20:34:39.412Z,17.40
2022-10-27T20:36:52.913Z,28.30
2022-10-27T20:39:07.255Z,26.80
2022-10-27T20:41:24.130Z,24.80
2022-10-27T20:43:38.720Z,29.40
2022-10-27T20:45:58.810Z,26.70
2022-10-27T20:48:13.081Z,25.50
2022-10-27T20:50:26.508Z,28.30
2022-10-27T20:54:58.927Z,25.50
2022-10-27T20:57:12.306Z,22.70
2022-10-27T20:59:26.706Z,25.30
2022-10-27T21:01:42.112Z,31.50
2022-10-27T21:03:57.099Z,30.10
2022-10-27T21:06:12.610Z,23.00
2022-10-27T21:08:26.307Z,21.90
2022-10-27T21:10:42.991Z,29.50
2022-10-27T21:12:56.262Z,17.40
2022-10-27T21:15:11.158Z,27.40
2022-10-27T21:17:25.024Z,26.90
2022-10-27T21:19:38.538Z,33.70
2022-10-27T21:21:51.958Z,32.70
2022-10-27T21:24:10.963Z,34.30
2022-10-27T21:26:28.177Z,35.60
2022-10-27T21:28:41.587Z,19.90
2022-10-27T21:30:55.170Z,27.30
2022-10-27T21:33:08.651Z,24.20
2022-10-27T21:35:22.317Z,30.50
2022-10-27T21:37:36.656Z,31.20
2022-10-27T21:39:50.003Z,16.10
2022-10-27T21:42:03.098Z,29.30
2022-10-27T21:44:17.249Z,33.20
2022-10-27T21:46:32.064Z,27.60
2022-10-27T21:48:45.316Z,25.10
2022-10-27T21:50:59.654Z,22.60
2022-10-27T21:53:12.869Z,21.50
2022-10-27T21:55:26.031Z,26.10
2022-10-27T21:57:39.148Z,26.40
2022-10-27T21:59:52.385Z,17.30
2022-10-27T22:02:05.620Z,17.80
2022-10-27T22:04:18.750Z,13.50
2022-10-27T22:06:34.930Z,9.10
2022-10-27T22:08:49.147Z,14.20
2022-10-27T22:11:09.686Z,15.80
2022-10-27T22:13:23.547Z,15.00
2022-10-27T22:15:37.066Z,20.60
2022-10-27T22:17:51.193Z,31.00
2022-10-27T22:20:04.766Z,17.70
2022-10-27T22:22:18.302Z,22.80
2022-10-27T22:24:31.648Z,36.30
2022-10-27T22:26:47.864Z,37.40
2022-10-27T22:29:02.505Z,31.50
2022-10-27T22:31:18.377Z,30.60
2022-10-27T22:33:32.629Z,25.30
2022-10-27T22:35:45.951Z,29.60
2022-10-27T22:37:59.363Z,42.60
2022-10-27T22:40:17.576Z,34.00
2022-10-27T22:42:30.820Z,29.50
2022-10-27T22:44:44.341Z,58.40
2022-10-27T22:46:57.575Z,43.80
2022-10-27T22:49:11.945Z,43.50
2022-10-27T22:51:26.997Z,39.70
2022-10-27T22:53:43.685Z,47.10
2022-10-27T22:55:57.779Z,45.40
2022-10-27T22:58:12.046Z,30.50
2022-10-27T23:00:25.614Z,36.50
2022-10-27T23:02:38.883Z,38.20
2022-10-27T23:04:52.066Z,46.70
2022-10-27T23:07:05.254Z,44.60
2022-10-27T23:09:21.041Z,49.90
2022-10-27T23:11:39.360Z,38.20
2022-10-27T23:13:52.525Z,52.50
2022-10-27T23:16:11.301Z,56.20
2022-10-27T23:18:24.691Z,43.50
2022-10-27T23:20:37.895Z,47.10
2022-10-27T23:22:51.405Z,40.50
2022-10-27T23:25:04.813Z,68.70
2022-10-27T23:27:18.109Z,66.50
2022-10-27T23:29:31.306Z,58.40
2022-10-27T23:31:44.814Z,36.80
2022-10-27T23:34:01.018Z,44.90
2022-10-27T23:36:17.259Z,46.10
2022-10-27T23:38:31.316Z,42.60
2022-10-27T23:40:52.367Z,43.00
2022-10-27T23:43:06.551Z,39.10
2022-10-27T23:45:19.954Z,40.90
2022-10-27T23:47:34.152Z,41.80
2022-10-27T23:49:47.308Z,41.20
2022-10-27T23:52:00.547Z,47.40
2022-10-27T23:54:14.289Z,38.10
2022-10-27T23:56:27.716Z,38.50
2022-10-27T23:58:42.428Z,51.10
